sensor_id;sensor_type;location;lat;lon;timestamp;P1;durP1;ratioP1;P2;durP2;ratioP2
10896;SDS011;5501;51.176;6.470;2022-09-28T00:04:06;4.13;;;3.03;;
10896;SDS011;5501;51.176;6.470;2022-09-28T00:09:07;2.78;;;2.42;;
10896;SDS011;5501;51.176;6.470;2022-09-28T00:14:09;2.92;;;2.50;;
10896;SDS011;5501;51.176;6.470;2022-09-28T00:19:11;4.10;;;2.78;;
10896;SDS011;5501;51.176;6.470;2022-09-28T00:24:13;4.05;;;2.63;;
10896;SDS011;5501;51.176;6.470;2022-09-28T00:29:17;3.92;;;2.80;;
10896;SDS011;5501;51.176;6.470;2022-09-28T00:34:37;3.95;;;3.13;;
10896;SDS011;5501;51.176;6.470;2022-09-28T00:39:41;4.23;;;3.20;;
10896;SDS011;5501;51.176;6.470;2022-09-28T00:44:53;4.40;;;3.40;;
10896;SDS011;5501;51.176;6.470;2022-09-28T00:55:04;4.40;;;3.83;;
10896;SDS011;5501;51.176;6.470;2022-09-28T01:00:09;7.82;;;4.50;;
10896;SDS011;5501;51.176;6.470;2022-09-28T01:05:11;5.43;;;4.07;;
10896;SDS011;5501;51.176;6.470;2022-09-28T01:10:13;8.00;;;3.97;;
10896;SDS011;5501;51.176;6.470;2022-09-28T01:15:15;6.05;;;4.35;;
10896;SDS011;5501;51.176;6.470;2022-09-28T01:30:29;4.75;;;3.40;;
10896;SDS011;5501;51.176;6.470;2022-09-28T01:35:44;5.10;;;3.88;;
10896;SDS011;5501;51.176;6.470;2022-09-28T01:40:51;5.32;;;3.75;;
10896;SDS011;5501;51.176;6.470;2022-09-28T01:45:57;4.88;;;3.85;;
10896;SDS011;5501;51.176;6.470;2022-09-28T01:51:07;5.85;;;3.83;;
10896;SDS011;5501;51.176;6.470;2022-09-28T01:56:16;5.35;;;3.20;;
10896;SDS011;5501;51.176;6.470;2022-09-28T02:01:30;8.15;;;3.65;;
10896;SDS011;5501;51.176;6.470;2022-09-28T02:06:55;5.60;;;3.88;;
10896;SDS011;5501;51.176;6.470;2022-09-28T02:12:19;4.85;;;3.38;;
10896;SDS011;5501;51.176;6.470;2022-09-28T02:17:27;5.78;;;3.50;;
10896;SDS011;5501;51.176;6.470;2022-09-28T02:28:05;4.57;;;3.60;;
10896;SDS011;5501;51.176;6.470;2022-09-28T02:33:12;6.00;;;3.67;;
10896;SDS011;5501;51.176;6.470;2022-09-28T02:38:14;7.47;;;4.90;;
10896;SDS011;5501;51.176;6.470;2022-09-28T02:43:23;7.88;;;5.13;;
10896;SDS011;5501;51.176;6.470;2022-09-28T02:48:39;6.47;;;5.65;;
10896;SDS011;5501;51.176;6.470;2022-09-28T03:04:38;5.90;;;4.82;;
10896;SDS011;5501;51.176;6.470;2022-09-28T03:09:58;8.57;;;5.75;;
10896;SDS011;5501;51.176;6.470;2022-09-28T03:15:27;6.80;;;6.10;;
10896;SDS011;5501;51.176;6.470;2022-09-28T03:20:31;11.50;;;6.70;;
10896;SDS011;5501;51.176;6.470;2022-09-28T03:25:34;9.40;;;7.20;;
10896;SDS011;5501;51.176;6.470;2022-09-28T03:30:36;11.65;;;8.05;;
10896;SDS011;5501;51.176;6.470;2022-09-28T03:35:38;11.27;;;7.65;;
10896;SDS011;5501;51.176;6.470;2022-09-28T03:40:39;12.07;;;8.88;;
10896;SDS011;5501;51.176;6.470;2022-09-28T03:45:41;13.52;;;9.68;;
10896;SDS011;5501;51.176;6.470;2022-09-28T03:50:42;13.88;;;9.63;;
10896;SDS011;5501;51.176;6.470;2022-09-28T03:55:44;13.20;;;9.50;;
10896;SDS011;5501;51.176;6.470;2022-09-28T04:00:45;11.80;;;8.52;;
10896;SDS011;5501;51.176;6.470;2022-09-28T04:05:48;13.77;;;9.10;;
10896;SDS011;5501;51.176;6.470;2022-09-28T04:10:50;12.93;;;8.93;;
10896;SDS011;5501;51.176;6.470;2022-09-28T04:15:53;11.85;;;8.30;;
10896;SDS011;5501;51.176;6.470;2022-09-28T04:20:57;9.77;;;7.28;;
10896;SDS011;5501;51.176;6.470;2022-09-28T04:26:07;10.70;;;7.47;;
10896;SDS011;5501;51.176;6.470;2022-09-28T04:31:21;9.45;;;7.85;;
10896;SDS011;5501;51.176;6.470;2022-09-28T04:36:23;9.50;;;7.10;;
10896;SDS011;5501;51.176;6.470;2022-09-28T04:41:25;10.10;;;7.47;;
10896;SDS011;5501;51.176;6.470;2022-09-28T04:46:27;9.77;;;7.05;;
10896;SDS011;5501;51.176;6.470;2022-09-28T04:52:00;11.88;;;6.20;;
10896;SDS011;5501;51.176;6.470;2022-09-28T04:57:02;9.45;;;6.28;;
10896;SDS011;5501;51.176;6.470;2022-09-28T05:02:04;8.40;;;6.28;;
10896;SDS011;5501;51.176;6.470;2022-09-28T05:12:26;7.20;;;5.68;;
10896;SDS011;5501;51.176;6.470;2022-09-28T05:17:27;12.95;;;5.80;;
10896;SDS011;5501;51.176;6.470;2022-09-28T05:22:52;10.18;;;5.55;;
10896;SDS011;5501;51.176;6.470;2022-09-28T05:27:54;12.20;;;5.93;;
10896;SDS011;5501;51.176;6.470;2022-09-28T05:33:11;7.53;;;5.65;;
10896;SDS011;5501;51.176;6.470;2022-09-28T05:43:22;7.53;;;5.53;;
10896;SDS011;5501;51.176;6.470;2022-09-28T05:48:24;7.93;;;5.60;;
10896;SDS011;5501;51.176;6.470;2022-09-28T05:53:26;6.93;;;5.65;;
10896;SDS011;5501;51.176;6.470;2022-09-28T05:58:27;6.75;;;5.53;;
10896;SDS011;5501;51.176;6.470;2022-09-28T06:03:30;8.40;;;5.15;;
10896;SDS011;5501;51.176;6.470;2022-09-28T06:08:32;7.60;;;5.30;;
10896;SDS011;5501;51.176;6.470;2022-09-28T06:13:51;7.65;;;5.45;;
10896;SDS011;5501;51.176;6.470;2022-09-28T06:18:53;13.40;;;5.78;;
10896;SDS011;5501;51.176;6.470;2022-09-28T06:24:12;6.68;;;5.22;;
10896;SDS011;5501;51.176;6.470;2022-09-28T06:29:14;7.40;;;5.18;;
10896;SDS011;5501;51.176;6.470;2022-09-28T06:34:20;8.63;;;5.30;;
10896;SDS011;5501;51.176;6.470;2022-09-28T06:39:22;5.53;;;4.90;;
10896;SDS011;5501;51.176;6.470;2022-09-28T06:44:24;6.10;;;5.10;;
10896;SDS011;5501;51.176;6.470;2022-09-28T06:55:23;6.03;;;4.72;;
10896;SDS011;5501;51.176;6.470;2022-09-28T07:00:30;7.32;;;5.10;;
10896;SDS011;5501;51.176;6.470;2022-09-28T07:05:35;5.97;;;4.47;;
10896;SDS011;5501;51.176;6.470;2022-09-28T07:11:10;6.18;;;4.47;;
10896;SDS011;5501;51.176;6.470;2022-09-28T07:16:36;7.93;;;4.85;;
10896;SDS011;5501;51.176;6.470;2022-09-28T07:22:00;6.60;;;4.18;;
10896;SDS011;5501;51.176;6.470;2022-09-28T07:27:06;12.48;;;5.13;;
10896;SDS011;5501;51.176;6.470;2022-09-28T07:32:26;6.00;;;4.13;;
10896;SDS011;5501;51.176;6.470;2022-09-28T07:38:01;4.82;;;4.05;;
10896;SDS011;5501;51.176;6.470;2022-09-28T07:43:05;4.97;;;4.30;;
10896;SDS011;5501;51.176;6.470;2022-09-28T07:48:07;6.10;;;3.80;;
10896;SDS011;5501;51.176;6.470;2022-09-28T07:53:27;5.25;;;4.00;;
10896;SDS011;5501;51.176;6.470;2022-09-28T07:58:45;9.25;;;4.03;;
10896;SDS011;5501;51.176;6.470;2022-09-28T08:04:06;5.00;;;3.30;;
10896;SDS011;5501;51.176;6.470;2022-09-28T08:09:09;5.18;;;3.95;;
10896;SDS011;5501;51.176;6.470;2022-09-28T08:14:30;7.10;;;3.35;;
10896;SDS011;5501;51.176;6.470;2022-09-28T08:19:46;4.20;;;2.92;;
10896;SDS011;5501;51.176;6.470;2022-09-28T08:25:07;6.07;;;2.70;;
10896;SDS011;5501;51.176;6.470;2022-09-28T08:30:10;3.05;;;2.33;;
10896;SDS011;5501;51.176;6.470;2022-09-28T08:35:27;7.03;;;2.85;;
10896;SDS011;5501;51.176;6.470;2022-09-28T08:46:45;3.40;;;2.28;;
10896;SDS011;5501;51.176;6.470;2022-09-28T08:52:16;3.75;;;2.45;;
10896;SDS011;5501;51.176;6.470;2022-09-28T09:02:55;3.33;;;2.10;;
10896;SDS011;5501;51.176;6.470;2022-09-28T09:08:02;1.92;;;1.63;;
10896;SDS011;5501;51.176;6.470;2022-09-28T09:19:04;2.25;;;1.70;;
10896;SDS011;5501;51.176;6.470;2022-09-28T09:24:50;3.35;;;1.70;;
10896;SDS011;5501;51.176;6.470;2022-09-28T09:52:12;3.75;;;1.40;;
10896;SDS011;5501;51.176;6.470;2022-09-28T09:57:20;2.08;;;1.48;;
10896;SDS011;5501;51.176;6.470;2022-09-28T10:02:38;1.42;;;1.33;;
10896;SDS011;5501;51.176;6.470;2022-09-28T10:13:10;3.33;;;1.60;;
10896;SDS011;5501;51.176;6.470;2022-09-28T10:18:13;2.08;;;1.40;;
10896;SDS011;5501;51.176;6.470;2022-09-28T10:23:39;1.30;;;1.20;;
10896;SDS011;5501;51.176;6.470;2022-09-28T10:28:44;6.80;;;1.80;;
10896;SDS011;5501;51.176;6.470;2022-09-28T10:34:02;3.45;;;1.52;;
10896;SDS011;5501;51.176;6.470;2022-09-28T10:39:05;1.80;;;1.38;;
10896;SDS011;5501;51.176;6.470;2022-09-28T10:44:46;1.80;;;1.17;;
10896;SDS011;5501;51.176;6.470;2022-09-28T10:55:30;4.15;;;1.33;;
10896;SDS011;5501;51.176;6.470;2022-09-28T11:00:40;1.67;;;1.10;;
10896;SDS011;5501;51.176;6.470;2022-09-28T11:05:55;1.60;;;1.10;;
10896;SDS011;5501;51.176;6.470;2022-09-28T11:11:02;1.20;;;1.10;;
10896;SDS011;5501;51.176;6.470;2022-09-28T11:16:05;1.77;;;1.05;;
10896;SDS011;5501;51.176;6.470;2022-09-28T11:21:19;1.38;;;1.27;;
10896;SDS011;5501;51.176;6.470;2022-09-28T11:27:02;3.25;;;1.05;;
10896;SDS011;5501;51.176;6.470;2022-09-28T11:32:01;1.83;;;1.13;;
10896;SDS011;5501;51.176;6.470;2022-09-28T11:53:11;1.13;;;0.77;;
10896;SDS011;5501;51.176;6.470;2022-09-28T11:58:28;1.38;;;0.80;;
10896;SDS011;5501;51.176;6.470;2022-09-28T12:03:38;3.97;;;0.88;;
10896;SDS011;5501;51.176;6.470;2022-09-28T12:08:46;0.80;;;0.80;;
10896;SDS011;5501;51.176;6.470;2022-09-28T12:14:04;1.85;;;1.10;;
10896;SDS011;5501;51.176;6.470;2022-09-28T12:19:21;0.80;;;0.80;;
10896;SDS011;5501;51.176;6.470;2022-09-28T12:24:31;0.65;;;0.65;;
10896;SDS011;5501;51.176;6.470;2022-09-28T12:29:38;0.82;;;0.63;;
10896;SDS011;5501;51.176;6.470;2022-09-28T12:34:44;1.77;;;0.85;;
10896;SDS011;5501;51.176;6.470;2022-09-28T12:40:05;0.80;;;0.70;;
10896;SDS011;5501;51.176;6.470;2022-09-28T12:56:30;1.38;;;0.70;;
10896;SDS011;5501;51.176;6.470;2022-09-28T13:07:31;1.20;;;1.00;;
10896;SDS011;5501;51.176;6.470;2022-09-28T13:28:18;2.10;;;1.15;;
10896;SDS011;5501;51.176;6.470;2022-09-28T13:33:31;3.17;;;0.90;;
10896;SDS011;5501;51.176;6.470;2022-09-28T13:38:43;5.55;;;1.38;;
10896;SDS011;5501;51.176;6.470;2022-09-28T13:54:18;1.33;;;1.00;;
10896;SDS011;5501;51.176;6.470;2022-09-28T13:59:30;1.35;;;1.05;;
10896;SDS011;5501;51.176;6.470;2022-09-28T14:20:36;1.73;;;0.90;;
10896;SDS011;5501;51.176;6.470;2022-09-28T14:31:23;1.55;;;0.90;;
10896;SDS011;5501;51.176;6.470;2022-09-28T14:36:35;0.70;;;0.70;;
10896;SDS011;5501;51.176;6.470;2022-09-28T14:42:06;1.10;;;0.70;;
10896;SDS011;5501;51.176;6.470;2022-09-28T14:48:01;0.90;;;0.90;;
10896;SDS011;5501;51.176;6.470;2022-09-28T14:52:45;1.42;;;1.00;;
10896;SDS011;5501;51.176;6.470;2022-09-28T14:57:52;2.97;;;1.33;;
10896;SDS011;5501;51.176;6.470;2022-09-28T15:03:01;2.50;;;1.08;;
10896;SDS011;5501;51.176;6.470;2022-09-28T15:08:11;2.95;;;0.80;;
10896;SDS011;5501;51.176;6.470;2022-09-28T15:13:26;0.80;;;0.80;;
10896;SDS011;5501;51.176;6.470;2022-09-28T15:18:50;2.13;;;1.08;;
10896;SDS011;5501;51.176;6.470;2022-09-28T15:29:33;1.48;;;1.00;;
10896;SDS011;5501;51.176;6.470;2022-09-28T15:34:35;1.02;;;0.93;;
10896;SDS011;5501;51.176;6.470;2022-09-28T15:39:52;0.88;;;0.88;;
10896;SDS011;5501;51.176;6.470;2022-09-28T15:50:29;1.70;;;1.27;;
10896;SDS011;5501;51.176;6.470;2022-09-28T15:55:36;1.63;;;1.45;;
10896;SDS011;5501;51.176;6.470;2022-09-28T16:00:46;1.40;;;1.20;;
10896;SDS011;5501;51.176;6.470;2022-09-28T16:10:54;4.20;;;1.40;;
10896;SDS011;5501;51.176;6.470;2022-09-28T16:16:02;3.58;;;1.92;;
10896;SDS011;5501;51.176;6.470;2022-09-28T16:26:35;2.15;;;1.63;;
10896;SDS011;5501;51.176;6.470;2022-09-28T16:31:39;6.18;;;1.65;;
10896;SDS011;5501;51.176;6.470;2022-09-28T16:36:44;2.92;;;1.42;;
10896;SDS011;5501;51.176;6.470;2022-09-28T16:41:51;5.55;;;1.60;;
10896;SDS011;5501;51.176;6.470;2022-09-28T16:46:55;1.60;;;1.08;;
10896;SDS011;5501;51.176;6.470;2022-09-28T16:51:58;1.20;;;1.00;;
10896;SDS011;5501;51.176;6.470;2022-09-28T16:57:01;2.60;;;1.45;;
10896;SDS011;5501;51.176;6.470;2022-09-28T17:02:17;1.50;;;1.40;;
10896;SDS011;5501;51.176;6.470;2022-09-28T17:07:40;5.82;;;2.13;;
10896;SDS011;5501;51.176;6.470;2022-09-28T17:12:43;5.65;;;3.33;;
10896;SDS011;5501;51.176;6.470;2022-09-28T17:17:45;8.85;;;3.72;;
10896;SDS011;5501;51.176;6.470;2022-09-28T17:22:47;8.05;;;3.58;;
10896;SDS011;5501;51.176;6.470;2022-09-28T17:27:50;3.53;;;2.83;;
10896;SDS011;5501;51.176;6.470;2022-09-28T17:32:54;4.78;;;2.78;;
10896;SDS011;5501;51.176;6.470;2022-09-28T17:37:56;6.47;;;2.70;;
10896;SDS011;5501;51.176;6.470;2022-09-28T17:42:57;4.43;;;3.40;;
10896;SDS011;5501;51.176;6.470;2022-09-28T17:47:59;3.75;;;2.92;;
10896;SDS011;5501;51.176;6.470;2022-09-28T17:53:01;4.80;;;3.80;;
10896;SDS011;5501;51.176;6.470;2022-09-28T17:58:16;5.95;;;3.90;;
10896;SDS011;5501;51.176;6.470;2022-09-28T18:03:21;5.78;;;4.07;;
10896;SDS011;5501;51.176;6.470;2022-09-28T18:08:23;7.63;;;5.50;;
10896;SDS011;5501;51.176;6.470;2022-09-28T18:13:25;2.75;;;2.38;;
10896;SDS011;5501;51.176;6.470;2022-09-28T18:18:26;4.22;;;2.78;;
10896;SDS011;5501;51.176;6.470;2022-09-28T18:23:28;2.80;;;2.60;;
10896;SDS011;5501;51.176;6.470;2022-09-28T18:28:29;5.30;;;3.72;;
10896;SDS011;5501;51.176;6.470;2022-09-28T18:33:31;7.97;;;5.68;;
10896;SDS011;5501;51.176;6.470;2022-09-28T18:38:35;8.60;;;4.90;;
10896;SDS011;5501;51.176;6.470;2022-09-28T18:43:38;4.45;;;3.75;;
10896;SDS011;5501;51.176;6.470;2022-09-28T18:48:40;4.38;;;3.33;;
10896;SDS011;5501;51.176;6.470;2022-09-28T18:53:42;5.72;;;4.43;;
10896;SDS011;5501;51.176;6.470;2022-09-28T18:58:44;4.05;;;3.65;;
10896;SDS011;5501;51.176;6.470;2022-09-28T19:03:46;4.95;;;4.10;;
10896;SDS011;5501;51.176;6.470;2022-09-28T19:08:51;7.40;;;4.95;;
10896;SDS011;5501;51.176;6.470;2022-09-28T19:13:55;13.95;;;7.03;;
10896;SDS011;5501;51.176;6.470;2022-09-28T19:18:57;10.05;;;7.07;;
10896;SDS011;5501;51.176;6.470;2022-09-28T19:24:01;6.85;;;5.40;;
10896;SDS011;5501;51.176;6.470;2022-09-28T19:29:04;4.97;;;4.10;;
10896;SDS011;5501;51.176;6.470;2022-09-28T19:34:05;5.57;;;3.72;;
10896;SDS011;5501;51.176;6.470;2022-09-28T19:39:12;5.75;;;3.97;;
10896;SDS011;5501;51.176;6.470;2022-09-28T19:44:15;3.83;;;3.47;;
10896;SDS011;5501;51.176;6.470;2022-09-28T19:54:27;5.20;;;4.70;;
10896;SDS011;5501;51.176;6.470;2022-09-28T20:04:38;4.55;;;4.05;;
10896;SDS011;5501;51.176;6.470;2022-09-28T20:09:40;9.63;;;4.38;;
10896;SDS011;5501;51.176;6.470;2022-09-28T20:14:42;7.20;;;4.45;;
10896;SDS011;5501;51.176;6.470;2022-09-28T20:19:43;6.30;;;4.03;;
10896;SDS011;5501;51.176;6.470;2022-09-28T20:24:45;6.13;;;4.63;;
10896;SDS011;5501;51.176;6.470;2022-09-28T20:29:46;8.73;;;4.60;;
10896;SDS011;5501;51.176;6.470;2022-09-28T20:34:48;7.30;;;4.80;;
10896;SDS011;5501;51.176;6.470;2022-09-28T20:39:49;5.55;;;4.47;;
10896;SDS011;5501;51.176;6.470;2022-09-28T20:44:51;4.82;;;3.83;;
10896;SDS011;5501;51.176;6.470;2022-09-28T20:49:52;5.03;;;4.00;;
10896;SDS011;5501;51.176;6.470;2022-09-28T20:54:54;6.22;;;4.20;;
10896;SDS011;5501;51.176;6.470;2022-09-28T20:59:55;10.93;;;4.38;;
10896;SDS011;5501;51.176;6.470;2022-09-28T21:04:57;7.10;;;3.92;;
10896;SDS011;5501;51.176;6.470;2022-09-28T21:09:59;6.50;;;4.70;;
10896;SDS011;5501;51.176;6.470;2022-09-28T21:15:00;4.40;;;3.75;;
10896;SDS011;5501;51.176;6.470;2022-09-28T21:20:06;10.90;;;3.90;;
10896;SDS011;5501;51.176;6.470;2022-09-28T21:25:08;4.43;;;3.78;;
10896;SDS011;5501;51.176;6.470;2022-09-28T21:30:10;6.88;;;4.47;;
10896;SDS011;5501;51.176;6.470;2022-09-28T21:35:12;4.82;;;4.22;;
10896;SDS011;5501;51.176;6.470;2022-09-28T21:40:13;4.22;;;3.80;;
10896;SDS011;5501;51.176;6.470;2022-09-28T21:45:15;6.45;;;4.15;;
10896;SDS011;5501;51.176;6.470;2022-09-28T21:50:18;5.47;;;4.90;;
10896;SDS011;5501;51.176;6.470;2022-09-28T21:55:22;6.47;;;4.50;;
10896;SDS011;5501;51.176;6.470;2022-09-28T22:00:24;4.20;;;3.75;;
10896;SDS011;5501;51.176;6.470;2022-09-28T22:05:25;5.55;;;4.38;;
10896;SDS011;5501;51.176;6.470;2022-09-28T22:10:28;4.10;;;3.70;;
10896;SDS011;5501;51.176;6.470;2022-09-28T22:15:29;4.50;;;4.10;;
10896;SDS011;5501;51.176;6.470;2022-09-28T22:20:31;5.00;;;4.50;;
10896;SDS011;5501;51.176;6.470;2022-09-28T22:25:32;8.00;;;4.57;;
10896;SDS011;5501;51.176;6.470;2022-09-28T22:30:34;7.20;;;4.32;;
10896;SDS011;5501;51.176;6.470;2022-09-28T22:35:35;5.53;;;5.00;;
10896;SDS011;5501;51.176;6.470;2022-09-28T22:40:40;10.68;;;4.38;;
10896;SDS011;5501;51.176;6.470;2022-09-28T22:45:47;6.10;;;5.30;;
10896;SDS011;5501;51.176;6.470;2022-09-28T22:50:49;7.03;;;4.53;;
10896;SDS011;5501;51.176;6.470;2022-09-28T22:55:51;9.15;;;4.65;;
10896;SDS011;5501;51.176;6.470;2022-09-28T23:00:53;6.35;;;4.60;;
10896;SDS011;5501;51.176;6.470;2022-09-28T23:05:56;4.03;;;3.63;;
10896;SDS011;5501;51.176;6.470;2022-09-28T23:10:57;5.90;;;4.13;;
10896;SDS011;5501;51.176;6.470;2022-09-28T23:16:00;6.50;;;3.40;;
10896;SDS011;5501;51.176;6.470;2022-09-28T23:21:04;5.00;;;3.75;;
10896;SDS011;5501;51.176;6.470;2022-09-28T23:26:17;4.57;;;3.65;;
10896;SDS011;5501;51.176;6.470;2022-09-28T23:31:25;4.30;;;3.90;;
10896;SDS011;5501;51.176;6.470;2022-09-28T23:36:29;3.67;;;3.30;;
10896;SDS011;5501;51.176;6.470;2022-09-28T23:41:31;3.70;;;3.30;;
10896;SDS011;5501;51.176;6.470;2022-09-28T23:46:32;6.25;;;3.95;;
10896;SDS011;5501;51.176;6.470;2022-09-28T23:51:34;3.97;;;3.33;;
10896;SDS011;5501;51.176;6.470;2022-09-28T23:56:35;4.35;;;3.60;;
